sensor_id;sensor_type;location;lat;lon;timestamp;P1;durP1;ratioP1;P2;durP2;ratioP2
5125;SDS011;63008;53.112;8.896;2023-07-24T00:00:32;4.30;;;3.90;;
5125;SDS011;63008;53.112;8.896;2023-07-24T00:02:34;4.20;;;3.90;;
5125;SDS011;63008;53.112;8.896;2023-07-24T00:04:35;4.07;;;3.70;;
5125;SDS011;63008;53.112;8.896;2023-07-24T00:06:36;4.17;;;3.87;;
5125;SDS011;63008;53.112;8.896;2023-07-24T00:08:38;4.23;;;3.87;;
5125;SDS011;63008;53.112;8.896;2023-07-24T00:10:39;4.43;;;4.13;;
5125;SDS011;63008;53.112;8.896;2023-07-24T00:12:40;5.20;;;4.33;;
5125;SDS011;63008;53.112;8.896;2023-07-24T00:14:41;7.33;;;4.30;;
5125;SDS011;63008;53.112;8.896;2023-07-24T00:16:42;4.87;;;4.37;;
5125;SDS011;63008;53.112;8.896;2023-07-24T00:18:43;4.30;;;3.90;;
5125;SDS011;63008;53.112;8.896;2023-07-24T00:20:44;5.63;;;4.20;;
5125;SDS011;63008;53.112;8.896;2023-07-24T00:22:45;6.07;;;4.10;;
5125;SDS011;63008;53.112;8.896;2023-07-24T00:24:45;4.97;;;4.20;;
5125;SDS011;63008;53.112;8.896;2023-07-24T00:26:46;4.40;;;4.10;;
5125;SDS011;63008;53.112;8.896;2023-07-24T00:28:47;4.97;;;4.47;;
5125;SDS011;63008;53.112;8.896;2023-07-24T00:30:48;4.60;;;3.87;;
5125;SDS011;63008;53.112;8.896;2023-07-24T00:32:49;8.27;;;4.00;;
5125;SDS011;63008;53.112;8.896;2023-07-24T00:34:50;4.67;;;4.37;;
5125;SDS011;63008;53.112;8.896;2023-07-24T00:36:51;4.43;;;4.13;;
5125;SDS011;63008;53.112;8.896;2023-07-24T00:38:52;3.77;;;3.50;;
5125;SDS011;63008;53.112;8.896;2023-07-24T00:40:53;4.43;;;4.03;;
5125;SDS011;63008;53.112;8.896;2023-07-24T00:42:54;4.60;;;4.30;;
5125;SDS011;63008;53.112;8.896;2023-07-24T00:44:55;8.40;;;4.47;;
5125;SDS011;63008;53.112;8.896;2023-07-24T00:46:56;4.07;;;3.67;;
5125;SDS011;63008;53.112;8.896;2023-07-24T00:48:58;6.07;;;3.77;;
5125;SDS011;63008;53.112;8.896;2023-07-24T00:51:00;3.63;;;3.33;;
5125;SDS011;63008;53.112;8.896;2023-07-24T00:53:02;5.80;;;3.97;;
5125;SDS011;63008;53.112;8.896;2023-07-24T00:55:04;5.47;;;4.00;;
5125;SDS011;63008;53.112;8.896;2023-07-24T00:57:06;3.87;;;3.47;;
5125;SDS011;63008;53.112;8.896;2023-07-24T00:59:08;7.70;;;3.80;;
5125;SDS011;63008;53.112;8.896;2023-07-24T01:01:09;4.80;;;3.83;;
5125;SDS011;63008;53.112;8.896;2023-07-24T01:03:11;4.33;;;3.97;;
5125;SDS011;63008;53.112;8.896;2023-07-24T01:05:13;4.47;;;4.10;;
5125;SDS011;63008;53.112;8.896;2023-07-24T01:07:15;4.83;;;3.97;;
5125;SDS011;63008;53.112;8.896;2023-07-24T01:09:17;3.80;;;3.50;;
5125;SDS011;63008;53.112;8.896;2023-07-24T01:11:19;5.53;;;3.77;;
5125;SDS011;63008;53.112;8.896;2023-07-24T01:13:22;4.03;;;3.60;;
5125;SDS011;63008;53.112;8.896;2023-07-24T01:15:32;4.00;;;3.60;;
5125;SDS011;63008;53.112;8.896;2023-07-24T01:17:37;5.77;;;4.00;;
5125;SDS011;63008;53.112;8.896;2023-07-24T01:19:43;4.83;;;4.27;;
5125;SDS011;63008;53.112;8.896;2023-07-24T01:21:52;3.40;;;3.20;;
5125;SDS011;63008;53.112;8.896;2023-07-24T01:24:19;5.17;;;4.00;;
5125;SDS011;63008;53.112;8.896;2023-07-24T01:26:55;7.20;;;3.93;;
5125;SDS011;63008;53.112;8.896;2023-07-24T01:28:56;3.30;;;3.10;;
5125;SDS011;63008;53.112;8.896;2023-07-24T01:30:57;3.67;;;3.47;;
5125;SDS011;63008;53.112;8.896;2023-07-24T01:32:58;4.60;;;4.20;;
5125;SDS011;63008;53.112;8.896;2023-07-24T01:34:59;8.77;;;3.90;;
5125;SDS011;63008;53.112;8.896;2023-07-24T01:37:00;8.30;;;4.13;;
5125;SDS011;63008;53.112;8.896;2023-07-24T01:39:02;4.33;;;3.93;;
5125;SDS011;63008;53.112;8.896;2023-07-24T01:41:03;5.23;;;4.73;;
5125;SDS011;63008;53.112;8.896;2023-07-24T01:43:04;5.90;;;3.83;;
5125;SDS011;63008;53.112;8.896;2023-07-24T01:45:05;4.50;;;3.63;;
5125;SDS011;63008;53.112;8.896;2023-07-24T01:47:07;4.43;;;4.03;;
5125;SDS011;63008;53.112;8.896;2023-07-24T01:49:08;5.50;;;3.90;;
5125;SDS011;63008;53.112;8.896;2023-07-24T01:51:09;4.30;;;3.90;;
5125;SDS011;63008;53.112;8.896;2023-07-24T01:53:10;6.67;;;4.30;;
5125;SDS011;63008;53.112;8.896;2023-07-24T01:55:11;5.03;;;4.27;;
5125;SDS011;63008;53.112;8.896;2023-07-24T01:57:12;5.00;;;4.50;;
5125;SDS011;63008;53.112;8.896;2023-07-24T01:59:13;6.33;;;4.10;;
5125;SDS011;63008;53.112;8.896;2023-07-24T02:01:14;4.53;;;4.13;;
5125;SDS011;63008;53.112;8.896;2023-07-24T02:03:15;4.80;;;4.37;;
5125;SDS011;63008;53.112;8.896;2023-07-24T02:05:16;5.87;;;4.33;;
5125;SDS011;63008;53.112;8.896;2023-07-24T02:07:17;5.50;;;4.57;;
5125;SDS011;63008;53.112;8.896;2023-07-24T02:09:18;4.90;;;4.60;;
5125;SDS011;63008;53.112;8.896;2023-07-24T02:11:19;4.77;;;4.33;;
5125;SDS011;63008;53.112;8.896;2023-07-24T02:13:20;6.50;;;4.80;;
5125;SDS011;63008;53.112;8.896;2023-07-24T02:15:21;5.30;;;4.90;;
5125;SDS011;63008;53.112;8.896;2023-07-24T02:17:22;5.43;;;4.93;;
5125;SDS011;63008;53.112;8.896;2023-07-24T02:19:24;6.03;;;4.53;;
5125;SDS011;63008;53.112;8.896;2023-07-24T02:21:25;4.40;;;4.10;;
5125;SDS011;63008;53.112;8.896;2023-07-24T02:23:25;5.50;;;4.77;;
5125;SDS011;63008;53.112;8.896;2023-07-24T02:25:26;5.13;;;4.73;;
5125;SDS011;63008;53.112;8.896;2023-07-24T02:27:28;4.80;;;4.40;;
5125;SDS011;63008;53.112;8.896;2023-07-24T02:29:31;4.70;;;4.30;;
5125;SDS011;63008;53.112;8.896;2023-07-24T02:31:33;6.83;;;4.73;;
5125;SDS011;63008;53.112;8.896;2023-07-24T02:33:34;5.20;;;4.77;;
5125;SDS011;63008;53.112;8.896;2023-07-24T02:35:39;7.07;;;4.83;;
5125;SDS011;63008;53.112;8.896;2023-07-24T02:37:40;5.67;;;5.00;;
5125;SDS011;63008;53.112;8.896;2023-07-24T02:39:41;5.23;;;4.83;;
5125;SDS011;63008;53.112;8.896;2023-07-24T02:41:42;4.90;;;4.50;;
5125;SDS011;63008;53.112;8.896;2023-07-24T02:43:43;5.10;;;4.63;;
5125;SDS011;63008;53.112;8.896;2023-07-24T02:45:44;5.20;;;4.70;;
5125;SDS011;63008;53.112;8.896;2023-07-24T02:47:45;4.63;;;4.20;;
5125;SDS011;63008;53.112;8.896;2023-07-24T02:49:46;5.10;;;4.37;;
5125;SDS011;63008;53.112;8.896;2023-07-24T02:51:47;6.63;;;5.30;;
5125;SDS011;63008;53.112;8.896;2023-07-24T02:53:49;4.50;;;4.10;;
5125;SDS011;63008;53.112;8.896;2023-07-24T02:55:50;5.00;;;4.70;;
5125;SDS011;63008;53.112;8.896;2023-07-24T02:57:51;5.50;;;4.97;;
5125;SDS011;63008;53.112;8.896;2023-07-24T02:59:52;5.43;;;4.13;;
5125;SDS011;63008;53.112;8.896;2023-07-24T03:01:53;5.00;;;4.50;;
5125;SDS011;63008;53.112;8.896;2023-07-24T03:03:54;5.63;;;5.17;;
5125;SDS011;63008;53.112;8.896;2023-07-24T03:05:55;5.70;;;5.17;;
5125;SDS011;63008;53.112;8.896;2023-07-24T03:07:56;6.37;;;5.50;;
5125;SDS011;63008;53.112;8.896;2023-07-24T03:09:57;5.67;;;5.17;;
5125;SDS011;63008;53.112;8.896;2023-07-24T03:11:58;5.97;;;5.47;;
5125;SDS011;63008;53.112;8.896;2023-07-24T03:13:59;5.60;;;4.67;;
5125;SDS011;63008;53.112;8.896;2023-07-24T03:16:00;5.87;;;5.37;;
5125;SDS011;63008;53.112;8.896;2023-07-24T03:18:01;6.93;;;5.30;;
5125;SDS011;63008;53.112;8.896;2023-07-24T03:20:08;6.00;;;5.40;;
5125;SDS011;63008;53.112;8.896;2023-07-24T03:22:10;5.70;;;5.13;;
5125;SDS011;63008;53.112;8.896;2023-07-24T03:24:12;5.20;;;4.80;;
5125;SDS011;63008;53.112;8.896;2023-07-24T03:26:12;5.60;;;5.20;;
5125;SDS011;63008;53.112;8.896;2023-07-24T03:28:13;7.00;;;6.30;;
5125;SDS011;63008;53.112;8.896;2023-07-24T03:30:14;5.90;;;5.40;;
5125;SDS011;63008;53.112;8.896;2023-07-24T03:32:15;5.80;;;5.40;;
5125;SDS011;63008;53.112;8.896;2023-07-24T03:34:16;5.50;;;5.00;;
5125;SDS011;63008;53.112;8.896;2023-07-24T03:36:17;5.17;;;4.73;;
5125;SDS011;63008;53.112;8.896;2023-07-24T03:38:18;5.50;;;5.00;;
5125;SDS011;63008;53.112;8.896;2023-07-24T03:40:19;8.10;;;5.93;;
5125;SDS011;63008;53.112;8.896;2023-07-24T03:42:24;5.37;;;4.90;;
5125;SDS011;63008;53.112;8.896;2023-07-24T03:44:29;9.40;;;5.60;;
5125;SDS011;63008;53.112;8.896;2023-07-24T03:46:34;5.80;;;5.23;;
5125;SDS011;63008;53.112;8.896;2023-07-24T03:48:35;6.10;;;4.77;;
5125;SDS011;63008;53.112;8.896;2023-07-24T03:50:37;6.33;;;5.73;;
5125;SDS011;63008;53.112;8.896;2023-07-24T03:52:38;6.53;;;5.33;;
5125;SDS011;63008;53.112;8.896;2023-07-24T03:54:39;6.73;;;5.40;;
5125;SDS011;63008;53.112;8.896;2023-07-24T03:56:40;6.60;;;5.70;;
5125;SDS011;63008;53.112;8.896;2023-07-24T03:58:41;7.00;;;4.90;;
5125;SDS011;63008;53.112;8.896;2023-07-24T04:00:41;5.47;;;4.97;;
5125;SDS011;63008;53.112;8.896;2023-07-24T04:02:42;5.83;;;5.33;;
5125;SDS011;63008;53.112;8.896;2023-07-24T04:04:43;8.93;;;4.97;;
5125;SDS011;63008;53.112;8.896;2023-07-24T04:06:45;5.10;;;4.70;;
5125;SDS011;63008;53.112;8.896;2023-07-24T04:08:46;5.17;;;4.67;;
5125;SDS011;63008;53.112;8.896;2023-07-24T04:10:47;5.30;;;4.90;;
5125;SDS011;63008;53.112;8.896;2023-07-24T04:12:48;7.30;;;4.73;;
5125;SDS011;63008;53.112;8.896;2023-07-24T04:14:49;4.53;;;4.23;;
5125;SDS011;63008;53.112;8.896;2023-07-24T04:16:51;5.17;;;4.67;;
5125;SDS011;63008;53.112;8.896;2023-07-24T04:18:51;4.77;;;4.37;;
5125;SDS011;63008;53.112;8.896;2023-07-24T04:20:52;4.03;;;3.73;;
5125;SDS011;63008;53.112;8.896;2023-07-24T04:22:53;4.33;;;3.93;;
5125;SDS011;63008;53.112;8.896;2023-07-24T04:24:54;5.33;;;4.03;;
5125;SDS011;63008;53.112;8.896;2023-07-24T04:26:55;4.23;;;3.87;;
5125;SDS011;63008;53.112;8.896;2023-07-24T04:28:56;4.10;;;3.80;;
5125;SDS011;63008;53.112;8.896;2023-07-24T04:31:00;4.33;;;3.93;;
5125;SDS011;63008;53.112;8.896;2023-07-24T04:33:02;4.43;;;3.57;;
5125;SDS011;63008;53.112;8.896;2023-07-24T04:35:03;4.13;;;3.33;;
5125;SDS011;63008;53.112;8.896;2023-07-24T04:37:04;3.70;;;3.40;;
5125;SDS011;63008;53.112;8.896;2023-07-24T04:39:05;4.50;;;4.10;;
5125;SDS011;63008;53.112;8.896;2023-07-24T04:41:06;4.10;;;3.90;;
5125;SDS011;63008;53.112;8.896;2023-07-24T04:43:07;4.50;;;3.77;;
5125;SDS011;63008;53.112;8.896;2023-07-24T04:45:08;3.90;;;3.63;;
5125;SDS011;63008;53.112;8.896;2023-07-24T04:47:10;3.30;;;3.10;;
5125;SDS011;63008;53.112;8.896;2023-07-24T04:49:10;3.60;;;3.30;;
5125;SDS011;63008;53.112;8.896;2023-07-24T04:51:11;4.50;;;4.20;;
5125;SDS011;63008;53.112;8.896;2023-07-24T04:53:12;3.63;;;3.43;;
5125;SDS011;63008;53.112;8.896;2023-07-24T04:55:13;4.00;;;3.80;;
5125;SDS011;63008;53.112;8.896;2023-07-24T04:57:14;3.47;;;3.27;;
5125;SDS011;63008;53.112;8.896;2023-07-24T04:59:15;4.13;;;3.83;;
5125;SDS011;63008;53.112;8.896;2023-07-24T05:01:16;3.90;;;3.70;;
5125;SDS011;63008;53.112;8.896;2023-07-24T05:03:17;4.03;;;3.53;;
5125;SDS011;63008;53.112;8.896;2023-07-24T05:05:18;6.40;;;3.20;;
5125;SDS011;63008;53.112;8.896;2023-07-24T05:07:19;4.53;;;3.50;;
5125;SDS011;63008;53.112;8.896;2023-07-24T05:09:20;2.87;;;2.70;;
5125;SDS011;63008;53.112;8.896;2023-07-24T05:11:21;4.10;;;3.83;;
5125;SDS011;63008;53.112;8.896;2023-07-24T05:13:22;3.23;;;3.10;;
5125;SDS011;63008;53.112;8.896;2023-07-24T05:15:23;3.67;;;3.37;;
5125;SDS011;63008;53.112;8.896;2023-07-24T05:17:24;3.13;;;2.80;;
5125;SDS011;63008;53.112;8.896;2023-07-24T05:19:25;3.17;;;3.00;;
5125;SDS011;63008;53.112;8.896;2023-07-24T05:21:26;3.60;;;3.30;;
5125;SDS011;63008;53.112;8.896;2023-07-24T05:23:27;3.50;;;3.30;;
5125;SDS011;63008;53.112;8.896;2023-07-24T05:25:28;3.43;;;3.23;;
5125;SDS011;63008;53.112;8.896;2023-07-24T05:27:29;3.10;;;2.80;;
5125;SDS011;63008;53.112;8.896;2023-07-24T05:29:30;3.77;;;3.47;;
5125;SDS011;63008;53.112;8.896;2023-07-24T05:31:33;2.83;;;2.60;;
5125;SDS011;63008;53.112;8.896;2023-07-24T05:33:35;3.40;;;3.23;;
5125;SDS011;63008;53.112;8.896;2023-07-24T05:35:35;3.03;;;2.83;;
5125;SDS011;63008;53.112;8.896;2023-07-24T05:37:36;4.30;;;3.03;;
5125;SDS011;63008;53.112;8.896;2023-07-24T05:39:37;3.67;;;3.37;;
5125;SDS011;63008;53.112;8.896;2023-07-24T05:41:38;2.70;;;2.50;;
5125;SDS011;63008;53.112;8.896;2023-07-24T05:43:39;3.30;;;3.10;;
5125;SDS011;63008;53.112;8.896;2023-07-24T05:45:40;4.17;;;3.77;;
5125;SDS011;63008;53.112;8.896;2023-07-24T05:47:41;3.30;;;3.10;;
5125;SDS011;63008;53.112;8.896;2023-07-24T05:49:42;3.30;;;2.90;;
5125;SDS011;63008;53.112;8.896;2023-07-24T05:51:43;3.70;;;3.40;;
5125;SDS011;63008;53.112;8.896;2023-07-24T05:53:44;2.90;;;2.70;;
5125;SDS011;63008;53.112;8.896;2023-07-24T05:55:45;3.03;;;2.93;;
5125;SDS011;63008;53.112;8.896;2023-07-24T05:57:46;3.47;;;3.17;;
5125;SDS011;63008;53.112;8.896;2023-07-24T05:59:47;3.30;;;3.10;;
5125;SDS011;63008;53.112;8.896;2023-07-24T06:01:48;3.57;;;3.37;;
5125;SDS011;63008;53.112;8.896;2023-07-24T06:03:49;3.70;;;3.40;;
5125;SDS011;63008;53.112;8.896;2023-07-24T06:05:50;3.60;;;3.40;;
5125;SDS011;63008;53.112;8.896;2023-07-24T06:07:53;3.90;;;2.83;;
5125;SDS011;63008;53.112;8.896;2023-07-24T06:09:54;6.50;;;3.20;;
5125;SDS011;63008;53.112;8.896;2023-07-24T06:11:55;3.87;;;3.57;;
5125;SDS011;63008;53.112;8.896;2023-07-24T06:13:56;3.20;;;3.00;;
5125;SDS011;63008;53.112;8.896;2023-07-24T06:15:57;3.37;;;3.07;;
5125;SDS011;63008;53.112;8.896;2023-07-24T06:17:58;3.93;;;3.70;;
5125;SDS011;63008;53.112;8.896;2023-07-24T06:19:59;4.73;;;3.20;;
5125;SDS011;63008;53.112;8.896;2023-07-24T06:22:00;4.23;;;3.50;;
5125;SDS011;63008;53.112;8.896;2023-07-24T06:24:00;3.70;;;3.40;;
5125;SDS011;63008;53.112;8.896;2023-07-24T06:26:01;4.07;;;3.57;;
5125;SDS011;63008;53.112;8.896;2023-07-24T06:28:02;6.70;;;3.90;;
5125;SDS011;63008;53.112;8.896;2023-07-24T06:30:04;4.23;;;3.93;;
5125;SDS011;63008;53.112;8.896;2023-07-24T06:32:05;4.10;;;3.90;;
5125;SDS011;63008;53.112;8.896;2023-07-24T06:34:07;4.17;;;3.97;;
5125;SDS011;63008;53.112;8.896;2023-07-24T06:36:10;7.27;;;6.50;;
5125;SDS011;63008;53.112;8.896;2023-07-24T06:38:11;3.90;;;3.70;;
5125;SDS011;63008;53.112;8.896;2023-07-24T06:40:14;5.90;;;5.40;;
5125;SDS011;63008;53.112;8.896;2023-07-24T06:42:15;5.50;;;4.93;;
5125;SDS011;63008;53.112;8.896;2023-07-24T06:44:16;5.43;;;5.03;;
5125;SDS011;63008;53.112;8.896;2023-07-24T06:46:17;5.33;;;4.93;;
5125;SDS011;63008;53.112;8.896;2023-07-24T06:48:18;5.40;;;5.00;;
5125;SDS011;63008;53.112;8.896;2023-07-24T06:50:19;5.63;;;5.23;;
5125;SDS011;63008;53.112;8.896;2023-07-24T06:52:20;5.37;;;4.97;;
5125;SDS011;63008;53.112;8.896;2023-07-24T06:54:21;6.20;;;5.60;;
5125;SDS011;63008;53.112;8.896;2023-07-24T06:56:22;6.13;;;5.47;;
5125;SDS011;63008;53.112;8.896;2023-07-24T06:58:23;5.40;;;4.90;;
5125;SDS011;63008;53.112;8.896;2023-07-24T07:00:24;5.67;;;5.37;;
5125;SDS011;63008;53.112;8.896;2023-07-24T07:02:25;6.97;;;5.50;;
5125;SDS011;63008;53.112;8.896;2023-07-24T07:04:26;5.40;;;4.93;;
5125;SDS011;63008;53.112;8.896;2023-07-24T07:06:27;16.93;;;5.30;;
5125;SDS011;63008;53.112;8.896;2023-07-24T07:08:29;10.13;;;5.30;;
5125;SDS011;63008;53.112;8.896;2023-07-24T07:10:31;10.97;;;5.47;;
5125;SDS011;63008;53.112;8.896;2023-07-24T07:12:32;6.00;;;5.00;;
5125;SDS011;63008;53.112;8.896;2023-07-24T07:14:33;6.20;;;5.57;;
5125;SDS011;63008;53.112;8.896;2023-07-24T07:16:34;5.87;;;5.37;;
5125;SDS011;63008;53.112;8.896;2023-07-24T07:18:35;7.03;;;6.20;;
5125;SDS011;63008;53.112;8.896;2023-07-24T07:20:36;6.80;;;6.20;;
5125;SDS011;63008;53.112;8.896;2023-07-24T07:22:37;17.57;;;6.27;;
5125;SDS011;63008;53.112;8.896;2023-07-24T07:24:38;6.23;;;5.50;;
5125;SDS011;63008;53.112;8.896;2023-07-24T07:26:39;8.50;;;6.43;;
5125;SDS011;63008;53.112;8.896;2023-07-24T07:28:40;6.97;;;6.47;;
5125;SDS011;63008;53.112;8.896;2023-07-24T07:30:42;12.63;;;6.57;;
5125;SDS011;63008;53.112;8.896;2023-07-24T07:32:43;7.17;;;6.47;;
5125;SDS011;63008;53.112;8.896;2023-07-24T07:34:44;7.20;;;6.50;;
5125;SDS011;63008;53.112;8.896;2023-07-24T07:36:45;7.70;;;7.13;;
5125;SDS011;63008;53.112;8.896;2023-07-24T07:38:46;7.47;;;6.77;;
5125;SDS011;63008;53.112;8.896;2023-07-24T07:40:47;7.37;;;6.63;;
5125;SDS011;63008;53.112;8.896;2023-07-24T07:42:48;7.37;;;6.87;;
5125;SDS011;63008;53.112;8.896;2023-07-24T07:44:49;7.37;;;6.77;;
5125;SDS011;63008;53.112;8.896;2023-07-24T07:46:50;9.13;;;7.27;;
5125;SDS011;63008;53.112;8.896;2023-07-24T07:48:51;9.17;;;7.50;;
5125;SDS011;63008;53.112;8.896;2023-07-24T07:50:52;7.43;;;6.93;;
5125;SDS011;63008;53.112;8.896;2023-07-24T07:52:53;7.17;;;6.70;;
5125;SDS011;63008;53.112;8.896;2023-07-24T07:54:54;6.50;;;6.10;;
5125;SDS011;63008;53.112;8.896;2023-07-24T07:56:55;7.60;;;6.80;;
5125;SDS011;63008;53.112;8.896;2023-07-24T07:58:56;7.37;;;6.77;;
5125;SDS011;63008;53.112;8.896;2023-07-24T08:00:57;8.50;;;6.30;;
5125;SDS011;63008;53.112;8.896;2023-07-24T08:02:58;8.07;;;6.90;;
5125;SDS011;63008;53.112;8.896;2023-07-24T08:04:59;7.17;;;6.67;;
5125;SDS011;63008;53.112;8.896;2023-07-24T08:07:00;6.23;;;5.80;;
5125;SDS011;63008;53.112;8.896;2023-07-24T08:09:01;9.33;;;6.20;;
5125;SDS011;63008;53.112;8.896;2023-07-24T08:11:05;7.73;;;6.33;;
5125;SDS011;63008;53.112;8.896;2023-07-24T08:13:06;7.20;;;6.50;;
5125;SDS011;63008;53.112;8.896;2023-07-24T08:15:10;14.93;;;6.70;;
5125;SDS011;63008;53.112;8.896;2023-07-24T08:17:12;7.47;;;6.77;;
5125;SDS011;63008;53.112;8.896;2023-07-24T08:19:13;7.20;;;6.70;;
5125;SDS011;63008;53.112;8.896;2023-07-24T08:21:14;7.27;;;6.67;;
5125;SDS011;63008;53.112;8.896;2023-07-24T08:23:15;8.40;;;7.70;;
5125;SDS011;63008;53.112;8.896;2023-07-24T08:25:16;8.90;;;7.70;;
5125;SDS011;63008;53.112;8.896;2023-07-24T08:27:17;13.53;;;8.30;;
5125;SDS011;63008;53.112;8.896;2023-07-24T08:29:18;8.77;;;6.83;;
5125;SDS011;63008;53.112;8.896;2023-07-24T08:31:19;7.73;;;7.13;;
5125;SDS011;63008;53.112;8.896;2023-07-24T08:33:20;7.43;;;6.73;;
5125;SDS011;63008;53.112;8.896;2023-07-24T08:35:21;7.83;;;6.60;;
5125;SDS011;63008;53.112;8.896;2023-07-24T08:37:22;8.97;;;8.07;;
5125;SDS011;63008;53.112;8.896;2023-07-24T08:39:23;8.67;;;7.80;;
5125;SDS011;63008;53.112;8.896;2023-07-24T08:41:24;8.30;;;7.60;;
5125;SDS011;63008;53.112;8.896;2023-07-24T08:43:25;10.90;;;7.60;;
5125;SDS011;63008;53.112;8.896;2023-07-24T08:45:26;7.70;;;7.13;;
5125;SDS011;63008;53.112;8.896;2023-07-24T08:47:28;8.80;;;7.80;;
5125;SDS011;63008;53.112;8.896;2023-07-24T08:49:30;8.77;;;8.07;;
5125;SDS011;63008;53.112;8.896;2023-07-24T08:51:32;6.87;;;6.20;;
5125;SDS011;63008;53.112;8.896;2023-07-24T08:53:34;8.53;;;7.83;;
5125;SDS011;63008;53.112;8.896;2023-07-24T08:55:39;8.80;;;8.10;;
5125;SDS011;63008;53.112;8.896;2023-07-24T08:57:41;9.97;;;8.97;;
5125;SDS011;63008;53.112;8.896;2023-07-24T08:59:42;9.20;;;8.27;;
5125;SDS011;63008;53.112;8.896;2023-07-24T09:01:43;13.40;;;11.77;;
5125;SDS011;63008;53.112;8.896;2023-07-24T09:03:44;8.93;;;8.10;;
5125;SDS011;63008;53.112;8.896;2023-07-24T09:05:45;7.27;;;6.50;;
5125;SDS011;63008;53.112;8.896;2023-07-24T09:07:46;8.00;;;7.17;;
5125;SDS011;63008;53.112;8.896;2023-07-24T09:09:47;8.10;;;7.50;;
5125;SDS011;63008;53.112;8.896;2023-07-24T09:11:52;8.10;;;7.43;;
5125;SDS011;63008;53.112;8.896;2023-07-24T09:13:54;7.57;;;7.07;;
5125;SDS011;63008;53.112;8.896;2023-07-24T09:15:55;9.63;;;7.43;;
5125;SDS011;63008;53.112;8.896;2023-07-24T09:17:56;8.87;;;7.97;;
5125;SDS011;63008;53.112;8.896;2023-07-24T09:19:57;7.77;;;7.17;;
5125;SDS011;63008;53.112;8.896;2023-07-24T09:22:08;6.77;;;6.07;;
5125;SDS011;63008;53.112;8.896;2023-07-24T09:24:14;6.57;;;6.07;;
5125;SDS011;63008;53.112;8.896;2023-07-24T09:26:15;8.20;;;6.60;;
5125;SDS011;63008;53.112;8.896;2023-07-24T09:28:16;7.10;;;6.27;;
5125;SDS011;63008;53.112;8.896;2023-07-24T09:30:18;6.10;;;5.50;;
5125;SDS011;63008;53.112;8.896;2023-07-24T09:32:24;6.70;;;6.10;;
5125;SDS011;63008;53.112;8.896;2023-07-24T09:34:27;6.47;;;5.97;;
5125;SDS011;63008;53.112;8.896;2023-07-24T09:36:36;5.63;;;5.20;;
5125;SDS011;63008;53.112;8.896;2023-07-24T09:38:38;6.97;;;6.33;;
5125;SDS011;63008;53.112;8.896;2023-07-24T09:40:42;6.70;;;6.13;;
5125;SDS011;63008;53.112;8.896;2023-07-24T09:42:44;6.17;;;5.00;;
5125;SDS011;63008;53.112;8.896;2023-07-24T09:44:45;7.97;;;6.27;;
5125;SDS011;63008;53.112;8.896;2023-07-24T09:46:46;5.87;;;5.43;;
5125;SDS011;63008;53.112;8.896;2023-07-24T09:48:47;4.60;;;4.20;;
5125;SDS011;63008;53.112;8.896;2023-07-24T09:50:49;4.70;;;4.40;;
5125;SDS011;63008;53.112;8.896;2023-07-24T09:52:54;4.17;;;3.87;;
5125;SDS011;63008;53.112;8.896;2023-07-24T09:55:09;4.40;;;4.10;;
5125;SDS011;63008;53.112;8.896;2023-07-24T09:57:13;4.10;;;3.80;;
5125;SDS011;63008;53.112;8.896;2023-07-24T09:59:15;3.73;;;3.63;;
5125;SDS011;63008;53.112;8.896;2023-07-24T10:01:16;4.17;;;3.87;;
5125;SDS011;63008;53.112;8.896;2023-07-24T10:03:17;6.60;;;4.40;;
5125;SDS011;63008;53.112;8.896;2023-07-24T10:05:18;4.53;;;3.40;;
5125;SDS011;63008;53.112;8.896;2023-07-24T10:07:19;3.70;;;3.50;;
5125;SDS011;63008;53.112;8.896;2023-07-24T10:09:23;3.57;;;3.27;;
5125;SDS011;63008;53.112;8.896;2023-07-24T10:11:25;3.10;;;3.00;;
5125;SDS011;63008;53.112;8.896;2023-07-24T10:13:27;3.40;;;3.20;;
5125;SDS011;63008;53.112;8.896;2023-07-24T10:15:29;3.30;;;3.10;;
5125;SDS011;63008;53.112;8.896;2023-07-24T10:17:34;4.40;;;4.10;;
5125;SDS011;63008;53.112;8.896;2023-07-24T10:19:40;5.90;;;3.90;;
5125;SDS011;63008;53.112;8.896;2023-07-24T10:21:47;3.63;;;3.37;;
5125;SDS011;63008;53.112;8.896;2023-07-24T10:23:48;3.90;;;3.60;;
5125;SDS011;63008;53.112;8.896;2023-07-24T10:25:49;3.73;;;3.40;;
5125;SDS011;63008;53.112;8.896;2023-07-24T10:27:50;4.07;;;3.77;;
5125;SDS011;63008;53.112;8.896;2023-07-24T10:30:02;3.20;;;3.00;;
5125;SDS011;63008;53.112;8.896;2023-07-24T10:32:17;3.93;;;3.40;;
5125;SDS011;63008;53.112;8.896;2023-07-24T10:34:18;3.67;;;3.40;;
5125;SDS011;63008;53.112;8.896;2023-07-24T10:36:21;4.37;;;4.07;;
5125;SDS011;63008;53.112;8.896;2023-07-24T10:38:32;4.00;;;3.30;;
5125;SDS011;63008;53.112;8.896;2023-07-24T10:40:35;4.20;;;3.90;;
5125;SDS011;63008;53.112;8.896;2023-07-24T10:42:36;3.93;;;3.63;;
5125;SDS011;63008;53.112;8.896;2023-07-24T10:44:39;3.43;;;3.23;;
5125;SDS011;63008;53.112;8.896;2023-07-24T10:46:40;3.63;;;3.33;;
5125;SDS011;63008;53.112;8.896;2023-07-24T10:48:43;3.93;;;3.63;;
5125;SDS011;63008;53.112;8.896;2023-07-24T10:50:50;4.17;;;3.63;;
5125;SDS011;63008;53.112;8.896;2023-07-24T10:52:52;5.60;;;3.00;;
5125;SDS011;63008;53.112;8.896;2023-07-24T10:54:53;3.80;;;3.60;;
5125;SDS011;63008;53.112;8.896;2023-07-24T10:56:57;4.17;;;3.73;;
5125;SDS011;63008;53.112;8.896;2023-07-24T10:59:04;3.90;;;3.60;;
5125;SDS011;63008;53.112;8.896;2023-07-24T11:01:06;3.57;;;3.37;;
5125;SDS011;63008;53.112;8.896;2023-07-24T11:03:10;3.87;;;3.67;;
5125;SDS011;63008;53.112;8.896;2023-07-24T11:05:12;5.70;;;3.73;;
5125;SDS011;63008;53.112;8.896;2023-07-24T11:07:14;3.60;;;3.30;;
5125;SDS011;63008;53.112;8.896;2023-07-24T11:09:15;4.10;;;3.90;;
5125;SDS011;63008;53.112;8.896;2023-07-24T11:11:16;4.00;;;3.70;;
5125;SDS011;63008;53.112;8.896;2023-07-24T11:13:18;4.70;;;4.33;;
5125;SDS011;63008;53.112;8.896;2023-07-24T11:15:24;3.60;;;3.40;;
5125;SDS011;63008;53.112;8.896;2023-07-24T11:17:33;5.23;;;3.83;;
5125;SDS011;63008;53.112;8.896;2023-07-24T11:19:36;4.80;;;4.40;;
5125;SDS011;63008;53.112;8.896;2023-07-24T11:21:37;3.93;;;3.73;;
5125;SDS011;63008;53.112;8.896;2023-07-24T11:23:44;4.60;;;4.30;;
5125;SDS011;63008;53.112;8.896;2023-07-24T11:25:52;4.33;;;4.10;;
5125;SDS011;63008;53.112;8.896;2023-07-24T11:27:54;4.70;;;4.30;;
5125;SDS011;63008;53.112;8.896;2023-07-24T11:29:55;4.90;;;4.50;;
5125;SDS011;63008;53.112;8.896;2023-07-24T11:31:56;4.43;;;4.20;;
5125;SDS011;63008;53.112;8.896;2023-07-24T11:33:57;5.07;;;4.67;;
5125;SDS011;63008;53.112;8.896;2023-07-24T11:35:58;4.50;;;4.20;;
5125;SDS011;63008;53.112;8.896;2023-07-24T11:38:00;4.60;;;4.30;;
5125;SDS011;63008;53.112;8.896;2023-07-24T11:40:02;4.33;;;4.03;;
5125;SDS011;63008;53.112;8.896;2023-07-24T11:42:10;4.80;;;4.40;;
5125;SDS011;63008;53.112;8.896;2023-07-24T11:44:11;4.90;;;4.60;;
5125;SDS011;63008;53.112;8.896;2023-07-24T11:46:26;4.27;;;3.97;;
5125;SDS011;63008;53.112;8.896;2023-07-24T11:48:30;4.87;;;4.57;;
5125;SDS011;63008;53.112;8.896;2023-07-24T11:50:41;6.80;;;4.33;;
5125;SDS011;63008;53.112;8.896;2023-07-24T11:52:49;4.40;;;4.10;;
5125;SDS011;63008;53.112;8.896;2023-07-24T11:54:57;4.87;;;4.57;;
5125;SDS011;63008;53.112;8.896;2023-07-24T11:57:13;5.00;;;4.63;;
5125;SDS011;63008;53.112;8.896;2023-07-24T11:59:16;11.30;;;5.00;;
5125;SDS011;63008;53.112;8.896;2023-07-24T12:01:17;9.77;;;5.60;;
5125;SDS011;63008;53.112;8.896;2023-07-24T12:03:21;5.63;;;5.17;;
5125;SDS011;63008;53.112;8.896;2023-07-24T12:05:22;7.60;;;5.17;;
5125;SDS011;63008;53.112;8.896;2023-07-24T12:07:28;6.30;;;5.90;;
5125;SDS011;63008;53.112;8.896;2023-07-24T12:09:30;7.50;;;5.40;;
5125;SDS011;63008;53.112;8.896;2023-07-24T12:11:31;6.50;;;5.90;;
5125;SDS011;63008;53.112;8.896;2023-07-24T12:13:32;6.13;;;5.63;;
5125;SDS011;63008;53.112;8.896;2023-07-24T12:15:33;7.20;;;6.70;;
5125;SDS011;63008;53.112;8.896;2023-07-24T12:17:35;6.70;;;6.10;;
5125;SDS011;63008;53.112;8.896;2023-07-24T12:19:37;6.20;;;5.80;;
5125;SDS011;63008;53.112;8.896;2023-07-24T12:21:38;7.30;;;6.50;;
5125;SDS011;63008;53.112;8.896;2023-07-24T12:23:39;6.30;;;5.90;;
5125;SDS011;63008;53.112;8.896;2023-07-24T12:25:39;6.80;;;6.20;;